createdAt,value
2023-03-13T00:02:20.026Z,46.82
2023-03-13T00:04:52.870Z,46.94
2023-03-13T00:07:25.386Z,47.01
2023-03-13T00:09:57.735Z,46.80
2023-03-13T00:12:30.044Z,47.04
2023-03-13T00:15:02.399Z,46.83
2023-03-13T00:17:34.757Z,47.12
2023-03-13T00:20:09.262Z,47.07
2023-03-13T00:22:41.626Z,47.27
2023-03-13T00:25:14.197Z,47.26
2023-03-13T00:27:46.506Z,47.50
2023-03-13T00:30:19.505Z,47.47
2023-03-13T00:32:51.959Z,47.44
2023-03-13T00:35:24.366Z,47.57
2023-03-13T00:37:56.885Z,47.60
2023-03-13T00:40:29.273Z,47.67
2023-03-13T00:43:01.515Z,47.81
2023-03-13T00:45:33.868Z,47.78
2023-03-13T00:48:06.587Z,47.94
2023-03-13T00:50:38.996Z,47.77
2023-03-13T00:53:11.327Z,48.10
2023-03-13T00:55:54.642Z,47.81
2023-03-13T00:58:27.709Z,48.05
2023-03-13T01:01:07.285Z,48.04
2023-03-13T01:03:40.867Z,48.03
2023-03-13T01:06:16.071Z,48.16
2023-03-13T01:08:49.108Z,48.25
2023-03-13T01:11:23.822Z,48.55
2023-03-13T01:13:59.245Z,48.21
2023-03-13T01:16:33.842Z,48.28
2023-03-13T01:19:12.547Z,48.24
2023-03-13T01:21:46.994Z,48.46
2023-03-13T01:24:20.386Z,48.49
2023-03-13T01:26:52.690Z,48.53
2023-03-13T01:29:25.073Z,48.60
2023-03-13T01:31:57.413Z,48.51
2023-03-13T01:34:29.676Z,48.80
2023-03-13T01:37:01.969Z,48.69
2023-03-13T01:39:34.182Z,48.90
2023-03-13T01:42:08.352Z,49.33
2023-03-13T01:44:54.892Z,49.02
2023-03-13T01:47:27.248Z,49.01
2023-03-13T01:49:59.782Z,49.25
2023-03-13T01:52:32.942Z,49.09
2023-03-13T01:55:10.038Z,49.27
2023-03-13T01:57:47.279Z,49.85
2023-03-13T02:00:24.296Z,49.99
2023-03-13T02:03:00.390Z,49.76
2023-03-13T02:05:34.977Z,49.98
2023-03-13T02:08:13.200Z,50.00
2023-03-13T02:10:52.899Z,50.15
2023-03-13T02:13:26.754Z,50.12
2023-03-13T02:15:59.192Z,50.12
2023-03-13T02:18:31.539Z,50.42
2023-03-13T02:21:12.990Z,50.24
2023-03-13T02:23:55.336Z,50.33
2023-03-13T02:26:27.845Z,50.47
2023-03-13T02:29:00.330Z,50.67
2023-03-13T02:31:33.020Z,50.93
2023-03-13T02:34:06.569Z,50.20
2023-03-13T02:36:39.052Z,50.43
2023-03-13T02:39:14.285Z,50.32
2023-03-13T02:41:48.653Z,50.04
2023-03-13T02:44:21.004Z,50.33
2023-03-13T02:46:54.619Z,50.55
2023-03-13T02:49:30.138Z,50.61
2023-03-13T02:52:07.452Z,50.86
2023-03-13T02:54:41.253Z,50.68
2023-03-13T02:57:13.624Z,50.77
2023-03-13T02:59:46.017Z,50.58
2023-03-13T03:02:18.395Z,50.98
2023-03-13T03:04:51.046Z,50.78
2023-03-13T03:07:23.403Z,50.79
2023-03-13T03:09:55.742Z,50.72
2023-03-13T03:12:28.136Z,50.58
2023-03-13T03:15:00.493Z,50.52
2023-03-13T03:17:32.893Z,50.47
2023-03-13T03:20:08.058Z,50.43
2023-03-13T03:22:40.986Z,50.59
2023-03-13T03:25:14.032Z,50.74
2023-03-13T03:27:46.440Z,50.50
2023-03-13T03:30:20.175Z,50.60
2023-03-13T03:32:52.635Z,50.79
2023-03-13T03:35:25.096Z,50.79
2023-03-13T03:37:57.445Z,50.67
2023-03-13T03:40:30.513Z,50.81
2023-03-13T03:43:02.901Z,50.89
2023-03-13T03:45:35.327Z,50.80
2023-03-13T03:48:08.224Z,50.98
2023-03-13T03:50:40.690Z,51.06
2023-03-13T03:53:13.700Z,51.16
2023-03-13T03:55:46.169Z,51.20
2023-03-13T03:58:18.799Z,51.13
2023-03-13T04:00:51.735Z,51.20
2023-03-13T04:03:24.135Z,51.27
2023-03-13T04:05:56.469Z,51.79
2023-03-13T04:08:28.873Z,51.88
2023-03-13T04:11:03.595Z,51.89
2023-03-13T04:13:36.028Z,51.75
2023-03-13T04:16:12.414Z,51.83
2023-03-13T04:18:44.704Z,52.11
2023-03-13T04:21:17.147Z,52.25
2023-03-13T04:23:51.448Z,52.27
2023-03-13T04:26:23.771Z,52.28
2023-03-13T04:28:56.066Z,52.27
2023-03-13T04:31:28.741Z,52.30
2023-03-13T04:34:01.230Z,52.16
2023-03-13T04:36:33.620Z,52.48
2023-03-13T04:39:06.571Z,52.40
2023-03-13T04:41:38.802Z,52.26
2023-03-13T04:44:11.175Z,52.42
2023-03-13T04:46:43.451Z,52.62
2023-03-13T04:49:16.027Z,52.67
2023-03-13T04:51:48.408Z,52.67
2023-03-13T04:54:20.796Z,52.68
2023-03-13T04:56:53.103Z,52.81
2023-03-13T04:59:25.428Z,52.87
2023-03-13T05:01:57.684Z,52.87
2023-03-13T05:04:30.125Z,52.82
2023-03-13T05:07:02.380Z,53.00
2023-03-13T05:09:34.786Z,52.80
2023-03-13T05:12:08.121Z,53.18
2023-03-13T05:14:40.628Z,52.91
2023-03-13T05:17:13.020Z,53.06
2023-03-13T05:19:45.348Z,53.08
2023-03-13T05:22:17.639Z,53.36
2023-03-13T05:24:49.974Z,53.36
2023-03-13T05:27:22.224Z,53.40
2023-03-13T05:29:54.442Z,53.28
2023-03-13T05:32:26.917Z,53.44
2023-03-13T05:35:02.208Z,53.47
2023-03-13T05:37:34.710Z,53.57
2023-03-13T05:40:09.171Z,53.63
2023-03-13T05:42:42.093Z,53.57
2023-03-13T05:45:15.229Z,53.52
2023-03-13T05:47:47.794Z,53.77
2023-03-13T05:50:20.373Z,53.53
2023-03-13T05:52:53.223Z,53.56
2023-03-13T05:55:25.444Z,53.44
2023-03-13T05:57:57.785Z,53.27
2023-03-13T06:00:30.398Z,53.19
2023-03-13T06:03:02.724Z,53.15
2023-03-13T06:05:34.988Z,53.10
2023-03-13T06:08:07.660Z,53.12
2023-03-13T06:10:39.950Z,53.15
2023-03-13T06:13:19.684Z,52.94
2023-03-13T06:15:56.537Z,52.89
2023-03-13T06:18:29.296Z,52.06
2023-03-13T06:21:03.176Z,51.91
2023-03-13T06:23:36.230Z,51.69
2023-03-13T06:26:08.569Z,51.59
2023-03-13T06:28:41.094Z,51.53
2023-03-13T06:31:13.684Z,51.43
2023-03-13T06:33:46.089Z,51.28
2023-03-13T06:36:18.502Z,51.09
2023-03-13T06:38:50.978Z,51.14
2023-03-13T06:41:23.556Z,50.92
2023-03-13T06:43:55.895Z,50.59
2023-03-13T06:46:28.393Z,50.45
2023-03-13T06:49:04.707Z,50.28
2023-03-13T06:51:37.136Z,50.01
2023-03-13T06:54:09.567Z,50.01
2023-03-13T06:56:41.950Z,50.28
2023-03-13T06:59:14.358Z,50.15
2023-03-13T07:01:46.900Z,50.22
2023-03-13T07:04:20.312Z,49.95
2023-03-13T07:06:53.982Z,49.94
2023-03-13T07:09:26.308Z,50.09
2023-03-13T07:11:59.009Z,50.02
2023-03-13T07:14:31.556Z,49.84
2023-03-13T07:17:03.924Z,49.68
2023-03-13T07:19:36.282Z,49.63
2023-03-13T07:22:08.667Z,49.41
2023-03-13T07:24:41.125Z,49.02
2023-03-13T07:27:14.092Z,49.24
2023-03-13T07:29:46.562Z,49.11
2023-03-13T07:32:19.342Z,48.98
2023-03-13T07:34:51.736Z,48.63
2023-03-13T07:37:23.993Z,48.59
2023-03-13T07:39:56.348Z,48.59
2023-03-13T07:42:28.597Z,48.25
2023-03-13T07:45:01.027Z,48.05
2023-03-13T07:47:35.091Z,47.92
2023-03-13T07:50:08.640Z,48.21
2023-03-13T07:52:40.903Z,47.60
2023-03-13T07:55:13.551Z,47.88
2023-03-13T07:57:45.810Z,47.75
2023-03-13T08:00:20.336Z,47.86
2023-03-13T08:02:52.604Z,47.75
2023-03-13T08:05:25.015Z,47.29
2023-03-13T08:07:57.418Z,47.23
2023-03-13T08:10:29.685Z,47.23
2023-03-13T08:13:02.362Z,46.49
2023-03-13T08:15:34.733Z,46.63
2023-03-13T08:18:07.284Z,46.59
2023-03-13T08:20:39.699Z,46.74
2023-03-13T08:23:12.127Z,46.63
2023-03-13T08:25:44.425Z,46.72
2023-03-13T08:28:16.758Z,46.25
2023-03-13T08:30:49.104Z,46.44
2023-03-13T08:33:21.381Z,45.99
2023-03-13T08:35:53.769Z,45.70
2023-03-13T08:38:26.231Z,46.16
2023-03-13T08:41:00.854Z,46.03
2023-03-13T08:43:33.202Z,46.16
2023-03-13T08:46:05.708Z,45.66
2023-03-13T08:48:38.195Z,45.48
2023-03-13T08:51:12.666Z,45.00
2023-03-13T08:53:45.878Z,44.82
2023-03-13T08:56:20.730Z,45.16
2023-03-13T08:58:54.791Z,44.30
2023-03-13T09:01:29.686Z,44.54
2023-03-13T09:04:04.430Z,44.74
2023-03-13T09:06:39.377Z,43.50
2023-03-13T09:09:14.467Z,43.24
2023-03-13T09:11:46.759Z,43.38
2023-03-13T09:14:19.137Z,44.01
2023-03-13T09:16:51.647Z,43.32
2023-03-13T09:19:23.910Z,42.88
2023-03-13T09:21:56.242Z,43.12
2023-03-13T09:24:28.985Z,43.20
2023-03-13T09:27:01.866Z,42.97
2023-03-13T09:29:38.218Z,42.51
2023-03-13T09:32:11.159Z,42.49
2023-03-13T09:34:43.392Z,42.28
2023-03-13T09:37:16.535Z,42.08
2023-03-13T09:39:49.364Z,42.41
2023-03-13T09:42:36.675Z,42.23
2023-03-13T09:45:14.467Z,42.29
2023-03-13T09:47:51.735Z,42.32
2023-03-13T09:50:29.029Z,42.29
2023-03-13T09:53:07.480Z,41.71
2023-03-13T09:55:43.222Z,41.77
2023-03-13T09:58:16.595Z,41.34
2023-03-13T10:00:55.387Z,41.40
2023-03-13T10:03:31.945Z,41.22
2023-03-13T10:06:08.255Z,41.02
2023-03-13T10:08:40.624Z,40.60
2023-03-13T10:11:23.443Z,40.50
2023-03-13T10:14:02.569Z,40.61
2023-03-13T10:16:41.257Z,40.81
2023-03-13T10:19:16.541Z,40.44
2023-03-13T10:21:53.529Z,40.48
2023-03-13T10:24:39.555Z,40.00
2023-03-13T10:27:12.862Z,40.14
2023-03-13T10:29:45.238Z,39.65
2023-03-13T10:32:20.874Z,39.70
2023-03-13T10:35:03.252Z,38.98
2023-03-13T10:37:42.637Z,38.81
2023-03-13T10:40:25.179Z,38.80
2023-03-13T10:43:04.276Z,38.68
2023-03-13T10:45:38.680Z,38.20
2023-03-13T10:48:17.344Z,38.56
2023-03-13T10:50:52.040Z,38.93
2023-03-13T10:53:27.498Z,38.76
2023-03-13T10:56:04.439Z,38.78
2023-03-13T10:58:42.821Z,38.62
2023-03-13T11:01:22.826Z,38.32
2023-03-13T11:03:57.610Z,37.74
2023-03-13T11:06:32.915Z,37.81
2023-03-13T11:09:13.305Z,38.03
2023-03-13T11:11:51.374Z,38.05
2023-03-13T11:14:25.233Z,37.75
2023-03-13T11:17:03.151Z,37.68
2023-03-13T11:19:50.236Z,37.59
2023-03-13T11:22:31.775Z,37.50
2023-03-13T11:25:18.022Z,37.06
2023-03-13T11:27:52.427Z,37.22
2023-03-13T11:30:40.493Z,36.98
2023-03-13T11:33:26.287Z,37.31
2023-03-13T11:36:05.686Z,37.40
2023-03-13T11:38:41.990Z,37.25
2023-03-13T11:41:33.625Z,36.99
2023-03-13T11:44:23.510Z,36.59
2023-03-13T11:47:13.317Z,37.10
2023-03-13T11:50:01.456Z,36.89
2023-03-13T11:52:49.782Z,36.91
2023-03-13T11:55:29.870Z,36.75
2023-03-13T11:58:14.769Z,36.73
2023-03-13T12:00:52.169Z,36.83
2023-03-13T12:03:32.049Z,36.63
2023-03-13T12:06:15.892Z,36.89
2023-03-13T12:08:59.018Z,36.63
2023-03-13T12:11:35.036Z,36.30
2023-03-13T12:14:13.340Z,36.48
2023-03-13T12:16:51.123Z,36.42
2023-03-13T12:19:29.993Z,36.63
2023-03-13T12:22:12.433Z,36.21
2023-03-13T12:24:53.194Z,36.33
2023-03-13T12:27:33.605Z,36.47
2023-03-13T12:30:16.808Z,36.36
2023-03-13T12:32:59.640Z,36.29
2023-03-13T12:35:33.775Z,36.36
2023-03-13T12:38:13.936Z,36.28
2023-03-13T12:40:51.180Z,36.20
2023-03-13T12:43:28.616Z,36.26
2023-03-13T12:46:16.763Z,36.39
2023-03-13T12:49:04.584Z,36.17
2023-03-13T12:51:50.778Z,36.10
2023-03-13T12:54:59.277Z,36.22
2023-03-13T12:58:09.143Z,36.22
2023-03-13T13:00:46.036Z,36.06
2023-03-13T13:03:31.852Z,36.14
2023-03-13T13:06:11.587Z,36.22
2023-03-13T13:08:48.673Z,36.23
2023-03-13T13:11:50.588Z,35.86
2023-03-13T13:14:58.100Z,35.94
2023-03-13T13:17:48.686Z,35.92
2023-03-13T13:20:42.333Z,36.02
2023-03-13T13:23:39.440Z,35.88
2023-03-13T13:26:48.683Z,35.75
2023-03-13T13:29:58.559Z,35.68
2023-03-13T13:32:46.306Z,35.64
2023-03-13T13:35:33.478Z,35.67
2023-03-13T13:38:30.340Z,35.73
2023-03-13T13:41:05.323Z,35.77
2023-03-13T13:43:38.984Z,35.61
2023-03-13T13:46:25.166Z,35.53
2023-03-13T13:49:09.221Z,35.21
2023-03-13T13:51:42.766Z,35.34
2023-03-13T13:54:35.298Z,35.12
2023-03-13T13:57:14.169Z,35.48
2023-03-13T13:59:49.510Z,35.40
2023-03-13T14:02:30.367Z,35.18
2023-03-13T14:05:10.025Z,35.19
2023-03-13T14:07:58.406Z,35.34
2023-03-13T14:10:41.892Z,35.31
2023-03-13T14:13:19.603Z,35.23
2023-03-13T14:15:53.937Z,35.04
2023-03-13T14:18:28.211Z,34.88
2023-03-13T14:21:05.326Z,35.03
2023-03-13T14:23:42.818Z,34.70
2023-03-13T14:26:18.092Z,34.88
2023-03-13T14:28:52.062Z,34.83
2023-03-13T14:31:30.073Z,34.45
2023-03-13T14:34:04.474Z,34.36
2023-03-13T14:36:51.396Z,34.51
2023-03-13T14:39:37.949Z,34.45
2023-03-13T14:42:14.750Z,34.57
2023-03-13T14:44:50.477Z,34.33
2023-03-13T14:47:24.639Z,34.16
2023-03-13T14:50:02.143Z,34.13
2023-03-13T14:52:36.002Z,34.13
2023-03-13T14:55:28.258Z,34.24
2023-03-13T14:58:03.763Z,34.21
2023-03-13T15:00:40.044Z,34.26
2023-03-13T15:03:32.233Z,34.26
2023-03-13T15:06:16.246Z,34.40
2023-03-13T15:08:49.968Z,34.30
2023-03-13T15:11:29.441Z,34.05
2023-03-13T15:14:02.483Z,34.12
2023-03-13T15:16:35.107Z,34.19
2023-03-13T15:19:08.229Z,34.02
2023-03-13T15:21:40.979Z,34.05
2023-03-13T15:24:16.809Z,34.23
2023-03-13T15:26:49.162Z,34.01
2023-03-13T15:29:21.805Z,34.14
2023-03-13T15:31:54.117Z,34.12
2023-03-13T15:34:26.497Z,34.13
2023-03-13T15:36:58.806Z,34.23
2023-03-13T15:39:31.170Z,34.28
2023-03-13T15:42:03.408Z,34.22
2023-03-13T15:44:35.880Z,34.35
2023-03-13T15:47:10.998Z,34.41
2023-03-13T15:49:43.283Z,34.44
2023-03-13T15:52:20.604Z,34.35
2023-03-13T15:54:53.878Z,34.32
2023-03-13T15:57:28.575Z,34.26
2023-03-13T16:00:00.960Z,34.44
2023-03-13T16:02:33.446Z,34.42
2023-03-13T16:05:08.343Z,34.42
2023-03-13T16:07:41.972Z,34.41
2023-03-13T16:10:24.515Z,34.53
2023-03-13T16:12:57.882Z,34.38
2023-03-13T16:15:30.244Z,34.49
2023-03-13T16:18:02.572Z,34.56
2023-03-13T16:20:36.217Z,34.62
2023-03-13T16:23:08.603Z,34.64
2023-03-13T16:25:41.492Z,34.68
2023-03-13T16:28:15.945Z,34.59
2023-03-13T16:30:48.497Z,34.72
2023-03-13T16:33:21.002Z,34.68
2023-03-13T16:35:54.721Z,34.60
2023-03-13T16:38:27.142Z,34.75
2023-03-13T16:40:59.344Z,34.92
2023-03-13T16:43:31.694Z,34.78
2023-03-13T16:46:06.466Z,34.83
2023-03-13T16:48:38.795Z,34.74
2023-03-13T16:51:18.433Z,34.81
2023-03-13T16:53:52.416Z,34.94
2023-03-13T16:56:29.763Z,34.87
2023-03-13T16:59:02.736Z,34.96
2023-03-13T17:01:35.342Z,34.85
2023-03-13T17:04:08.363Z,34.86
2023-03-13T17:06:42.723Z,34.96
2023-03-13T17:09:18.129Z,34.98
2023-03-13T17:11:50.661Z,34.98
2023-03-13T17:14:22.857Z,34.88
2023-03-13T17:16:55.172Z,34.94
2023-03-13T17:19:27.554Z,34.88
2023-03-13T17:21:59.794Z,34.86
2023-03-13T17:24:32.256Z,34.89
2023-03-13T17:27:04.702Z,34.92
2023-03-13T17:29:36.960Z,34.91
2023-03-13T17:32:09.697Z,34.86
2023-03-13T17:34:42.828Z,34.88
2023-03-13T17:37:19.496Z,34.90
2023-03-13T17:39:52.627Z,35.04
2023-03-13T17:42:25.228Z,35.02
2023-03-13T17:44:57.465Z,34.92
2023-03-13T17:47:30.257Z,35.10
2023-03-13T17:50:05.405Z,35.12
2023-03-13T17:52:38.187Z,35.23
2023-03-13T17:55:12.727Z,35.09
2023-03-13T17:57:45.063Z,35.11
2023-03-13T18:00:23.224Z,35.15
2023-03-13T18:02:55.601Z,35.17
2023-03-13T18:05:29.004Z,35.29
2023-03-13T18:08:01.391Z,35.33
2023-03-13T18:10:34.206Z,35.28
2023-03-13T18:13:06.623Z,35.41
2023-03-13T18:15:39.464Z,35.38
2023-03-13T18:18:17.010Z,35.50
2023-03-13T18:20:49.280Z,35.50
2023-03-13T18:23:21.638Z,35.62
2023-03-13T18:25:54.073Z,35.69
2023-03-13T18:28:26.394Z,35.71
2023-03-13T18:30:58.691Z,35.71
2023-03-13T18:33:31.189Z,35.67
2023-03-13T18:36:03.682Z,35.71
2023-03-13T18:38:36.087Z,35.74
2023-03-13T18:41:10.125Z,35.78
2023-03-13T18:43:43.452Z,35.71
2023-03-13T18:46:23.004Z,35.68
2023-03-13T18:48:55.874Z,35.66
2023-03-13T18:51:30.909Z,35.72
2023-03-13T18:54:03.064Z,35.67
2023-03-13T18:56:35.495Z,35.92
2023-03-13T18:59:11.702Z,35.79
2023-03-13T19:01:44.021Z,35.90
2023-03-13T19:04:16.438Z,35.86
2023-03-13T19:06:49.269Z,35.92
2023-03-13T19:12:16.212Z,36.03
2023-03-13T19:14:48.487Z,36.00
2023-03-13T19:17:27.118Z,36.06
2023-03-13T19:19:59.743Z,36.25
2023-03-13T19:22:32.228Z,36.32
2023-03-13T19:25:04.736Z,36.45
2023-03-13T19:27:37.072Z,36.41
2023-03-13T19:30:18.003Z,36.47
2023-03-13T19:32:50.403Z,36.74
2023-03-13T19:35:22.804Z,36.77
2023-03-13T19:37:55.759Z,36.81
2023-03-13T19:40:29.762Z,36.90
2023-03-13T19:43:02.218Z,37.01
2023-03-13T19:45:34.758Z,37.04
2023-03-13T19:48:07.497Z,37.07
2023-03-13T19:50:40.005Z,37.04
2023-03-13T19:53:12.281Z,37.09
2023-03-13T19:55:44.633Z,37.21
2023-03-13T19:58:17.328Z,37.34
2023-03-13T20:00:49.698Z,37.24
2023-03-13T20:03:21.959Z,37.43
2023-03-13T20:05:54.265Z,37.49
2023-03-13T20:08:26.601Z,37.58
2023-03-13T20:10:59.159Z,37.56
2023-03-13T20:13:31.614Z,37.67
2023-03-13T20:16:04.185Z,37.72
2023-03-13T20:18:36.553Z,37.83
2023-03-13T20:21:09.143Z,37.93
2023-03-13T20:23:41.446Z,38.02
2023-03-13T20:26:15.648Z,37.94
2023-03-13T20:28:49.622Z,38.01
2023-03-13T20:31:23.544Z,38.00
2023-03-13T20:33:56.053Z,38.08
2023-03-13T20:36:28.593Z,38.12
2023-03-13T20:39:00.929Z,38.24
2023-03-13T20:41:33.741Z,38.32
2023-03-13T20:44:06.276Z,38.52
2023-03-13T20:46:38.947Z,38.65
2023-03-13T20:49:11.360Z,38.71
2023-03-13T20:51:43.703Z,38.77
2023-03-13T20:54:15.914Z,38.79
2023-03-13T20:56:48.215Z,38.99
2023-03-13T20:59:20.675Z,39.05
2023-03-13T21:01:53.110Z,39.24
2023-03-13T21:04:25.507Z,39.45
2023-03-13T21:07:04.594Z,39.52
2023-03-13T21:09:37.630Z,39.72
2023-03-13T21:12:10.546Z,39.76
2023-03-13T21:14:42.932Z,39.93
2023-03-13T21:17:16.053Z,39.96
2023-03-13T21:19:48.363Z,39.96
2023-03-13T21:22:20.901Z,39.76
2023-03-13T21:24:53.262Z,39.55
2023-03-13T21:27:25.711Z,39.37
2023-03-13T21:29:58.057Z,39.43
2023-03-13T21:32:30.806Z,39.26
2023-03-13T21:35:06.789Z,39.52
2023-03-13T21:37:39.867Z,39.49
2023-03-13T21:40:14.373Z,39.43
2023-03-13T21:42:46.729Z,39.39
2023-03-13T21:45:19.291Z,39.54
2023-03-13T21:47:51.610Z,39.59
2023-03-13T21:50:25.120Z,39.52
2023-03-13T21:52:57.717Z,39.56
2023-03-13T21:55:31.741Z,39.62
2023-03-13T21:58:04.034Z,39.50
2023-03-13T22:00:36.667Z,39.62
2023-03-13T22:03:10.713Z,39.63
2023-03-13T22:05:46.464Z,39.48
2023-03-13T22:08:19.071Z,39.53
2023-03-13T22:10:59.948Z,39.61
2023-03-13T22:13:35.230Z,39.48
2023-03-13T22:16:18.035Z,39.60
2023-03-13T22:18:52.688Z,39.79
2023-03-13T22:21:24.992Z,39.75
2023-03-13T22:24:07.884Z,39.91
2023-03-13T22:26:41.660Z,40.10
2023-03-13T22:29:13.988Z,39.84
2023-03-13T22:31:46.238Z,40.21
2023-03-13T22:34:19.340Z,40.24
2023-03-13T22:36:51.872Z,40.16
2023-03-13T22:39:24.480Z,40.16
2023-03-13T22:41:56.666Z,40.61
2023-03-13T22:44:28.988Z,40.44
2023-03-13T22:47:01.613Z,40.28
2023-03-13T22:49:33.909Z,40.67
2023-03-13T22:52:06.814Z,40.69
2023-03-13T22:54:39.119Z,40.81
2023-03-13T22:57:11.356Z,40.91
2023-03-13T22:59:43.741Z,40.87
2023-03-13T23:02:16.024Z,40.90
2023-03-13T23:04:48.526Z,41.10
2023-03-13T23:07:22.728Z,41.10
2023-03-13T23:09:55.063Z,41.29
2023-03-13T23:12:30.794Z,41.33
2023-03-13T23:15:02.251Z,41.36
2023-03-13T23:17:36.407Z,41.43
2023-03-13T23:20:13.405Z,41.15
2023-03-13T23:22:48.960Z,41.36
2023-03-13T23:25:23.171Z,41.72
2023-03-13T23:27:55.399Z,41.32
2023-03-13T23:30:27.982Z,41.87
2023-03-13T23:33:00.834Z,41.65
2023-03-13T23:35:33.133Z,41.65
2023-03-13T23:38:05.408Z,41.80
2023-03-13T23:40:37.680Z,41.73
2023-03-13T23:43:09.960Z,41.88
2023-03-13T23:45:42.210Z,41.87
2023-03-13T23:48:15.760Z,41.94
2023-03-13T23:50:48.044Z,41.97
2023-03-13T23:53:20.402Z,42.04
2023-03-13T23:55:59.532Z,42.34
2023-03-13T23:58:32.407Z,42.10
